sensor_id;sensor_type;location;lat;lon;timestamp;temperature;humidity
43183;DHT22;28802;38.578;-0.066;2023-08-30T00:00:17;24.70;99.90
43183;DHT22;28802;38.578;-0.066;2023-08-30T00:02:45;24.80;99.90
43183;DHT22;28802;38.578;-0.066;2023-08-30T00:05:11;25.00;99.90
43183;DHT22;28802;38.578;-0.066;2023-08-30T00:07:37;25.00;99.90
43183;DHT22;28802;38.578;-0.066;2023-08-30T00:10:03;25.00;99.90
43183;DHT22;28802;38.578;-0.066;2023-08-30T00:12:29;25.00;99.90
43183;DHT22;28802;38.578;-0.066;2023-08-30T00:14:56;25.00;99.90
43183;DHT22;28802;38.578;-0.066;2023-08-30T00:17:22;25.00;99.90
43183;DHT22;28802;38.578;-0.066;2023-08-30T00:19:48;25.00;99.90
43183;DHT22;28802;38.578;-0.066;2023-08-30T00:22:14;25.00;99.90
43183;DHT22;28802;38.578;-0.066;2023-08-30T00:24:40;25.10;99.90
43183;DHT22;28802;38.578;-0.066;2023-08-30T00:27:06;25.00;99.90
43183;DHT22;28802;38.578;-0.066;2023-08-30T00:29:32;25.10;99.90
43183;DHT22;28802;38.578;-0.066;2023-08-30T00:31:59;25.10;99.90
43183;DHT22;28802;38.578;-0.066;2023-08-30T00:34:26;25.10;99.90
43183;DHT22;28802;38.578;-0.066;2023-08-30T00:36:51;25.10;99.90
43183;DHT22;28802;38.578;-0.066;2023-08-30T00:39:17;25.10;99.90
43183;DHT22;28802;38.578;-0.066;2023-08-30T00:41:43;25.00;99.90
43183;DHT22;28802;38.578;-0.066;2023-08-30T00:44:10;25.00;99.90
43183;DHT22;28802;38.578;-0.066;2023-08-30T00:46:36;25.00;99.90
43183;DHT22;28802;38.578;-0.066;2023-08-30T00:49:05;24.90;99.90
43183;DHT22;28802;38.578;-0.066;2023-08-30T00:51:31;25.00;99.90
43183;DHT22;28802;38.578;-0.066;2023-08-30T00:53:59;25.00;99.90
43183;DHT22;28802;38.578;-0.066;2023-08-30T00:56:27;25.00;99.90
43183;DHT22;28802;38.578;-0.066;2023-08-30T00:58:53;25.00;99.90
43183;DHT22;28802;38.578;-0.066;2023-08-30T01:01:20;25.00;99.90
43183;DHT22;28802;38.578;-0.066;2023-08-30T01:03:46;25.00;99.90
43183;DHT22;28802;38.578;-0.066;2023-08-30T01:06:12;24.90;99.90
43183;DHT22;28802;38.578;-0.066;2023-08-30T01:08:42;24.90;99.90
43183;DHT22;28802;38.578;-0.066;2023-08-30T01:14:12;24.80;99.90
43183;DHT22;28802;38.578;-0.066;2023-08-30T01:16:39;24.80;99.90
43183;DHT22;28802;38.578;-0.066;2023-08-30T01:22:28;24.80;99.90
43183;DHT22;28802;38.578;-0.066;2023-08-30T01:27:45;24.80;99.90
43183;DHT22;28802;38.578;-0.066;2023-08-30T01:30:14;24.70;99.90
43183;DHT22;28802;38.578;-0.066;2023-08-30T01:32:41;24.70;99.90
43183;DHT22;28802;38.578;-0.066;2023-08-30T01:35:07;24.60;99.90
43183;DHT22;28802;38.578;-0.066;2023-08-30T01:37:34;24.50;99.90
43183;DHT22;28802;38.578;-0.066;2023-08-30T01:40:02;24.50;99.90
43183;DHT22;28802;38.578;-0.066;2023-08-30T01:42:30;24.50;99.90
43183;DHT22;28802;38.578;-0.066;2023-08-30T01:44:59;24.60;99.90
43183;DHT22;28802;38.578;-0.066;2023-08-30T01:47:27;24.70;99.90
43183;DHT22;28802;38.578;-0.066;2023-08-30T01:49:55;24.60;99.90
43183;DHT22;28802;38.578;-0.066;2023-08-30T01:52:23;24.60;99.90
43183;DHT22;28802;38.578;-0.066;2023-08-30T01:54:51;24.60;99.90
43183;DHT22;28802;38.578;-0.066;2023-08-30T01:57:19;24.50;99.90
43183;DHT22;28802;38.578;-0.066;2023-08-30T01:59:45;24.50;99.90
43183;DHT22;28802;38.578;-0.066;2023-08-30T02:02:11;24.50;99.90
43183;DHT22;28802;38.578;-0.066;2023-08-30T02:04:37;24.50;99.90
43183;DHT22;28802;38.578;-0.066;2023-08-30T02:07:04;24.50;99.90
43183;DHT22;28802;38.578;-0.066;2023-08-30T02:09:42;24.30;99.90
43183;DHT22;28802;38.578;-0.066;2023-08-30T02:12:16;24.20;99.90
43183;DHT22;28802;38.578;-0.066;2023-08-30T02:14:47;24.20;99.90
43183;DHT22;28802;38.578;-0.066;2023-08-30T02:17:17;24.20;99.90
43183;DHT22;28802;38.578;-0.066;2023-08-30T02:19:44;24.30;99.90
43183;DHT22;28802;38.578;-0.066;2023-08-30T02:22:10;24.30;99.90
43183;DHT22;28802;38.578;-0.066;2023-08-30T02:24:36;24.30;99.90
43183;DHT22;28802;38.578;-0.066;2023-08-30T02:27:02;24.30;99.90
43183;DHT22;28802;38.578;-0.066;2023-08-30T02:29:28;24.30;99.90
43183;DHT22;28802;38.578;-0.066;2023-08-30T02:31:54;24.30;99.90
43183;DHT22;28802;38.578;-0.066;2023-08-30T02:34:21;24.30;99.90
43183;DHT22;28802;38.578;-0.066;2023-08-30T02:36:47;24.40;99.90
43183;DHT22;28802;38.578;-0.066;2023-08-30T02:39:14;24.50;99.90
43183;DHT22;28802;38.578;-0.066;2023-08-30T02:41:41;24.50;99.90
43183;DHT22;28802;38.578;-0.066;2023-08-30T02:44:11;24.60;99.90
43183;DHT22;28802;38.578;-0.066;2023-08-30T02:46:37;24.70;99.90
43183;DHT22;28802;38.578;-0.066;2023-08-30T02:49:05;24.70;99.90
43183;DHT22;28802;38.578;-0.066;2023-08-30T02:51:31;24.70;99.90
43183;DHT22;28802;38.578;-0.066;2023-08-30T02:53:57;24.80;99.90
43183;DHT22;28802;38.578;-0.066;2023-08-30T02:56:23;24.80;99.90
43183;DHT22;28802;38.578;-0.066;2023-08-30T02:58:49;24.70;99.90
43183;DHT22;28802;38.578;-0.066;2023-08-30T03:01:15;24.70;99.90
43183;DHT22;28802;38.578;-0.066;2023-08-30T03:03:41;24.80;99.90
43183;DHT22;28802;38.578;-0.066;2023-08-30T03:06:07;24.70;99.90
43183;DHT22;28802;38.578;-0.066;2023-08-30T03:08:32;24.70;99.90
43183;DHT22;28802;38.578;-0.066;2023-08-30T03:11:12;24.80;99.90
43183;DHT22;28802;38.578;-0.066;2023-08-30T03:13:43;24.80;99.90
43183;DHT22;28802;38.578;-0.066;2023-08-30T03:16:13;24.80;99.90
43183;DHT22;28802;38.578;-0.066;2023-08-30T03:18:40;24.80;99.90
43183;DHT22;28802;38.578;-0.066;2023-08-30T03:21:06;24.70;99.90
43183;DHT22;28802;38.578;-0.066;2023-08-30T03:23:33;24.70;99.90
43183;DHT22;28802;38.578;-0.066;2023-08-30T03:26:00;24.80;99.90
43183;DHT22;28802;38.578;-0.066;2023-08-30T03:28:25;24.80;99.90
43183;DHT22;28802;38.578;-0.066;2023-08-30T03:30:53;24.80;99.90
43183;DHT22;28802;38.578;-0.066;2023-08-30T03:33:18;24.80;99.90
43183;DHT22;28802;38.578;-0.066;2023-08-30T03:35:44;24.80;99.90
43183;DHT22;28802;38.578;-0.066;2023-08-30T03:38:10;24.70;99.90
43183;DHT22;28802;38.578;-0.066;2023-08-30T03:40:36;24.70;99.90
43183;DHT22;28802;38.578;-0.066;2023-08-30T03:43:03;24.70;99.90
43183;DHT22;28802;38.578;-0.066;2023-08-30T03:45:29;24.60;99.90
43183;DHT22;28802;38.578;-0.066;2023-08-30T03:47:54;24.50;99.90
43183;DHT22;28802;38.578;-0.066;2023-08-30T03:50:20;24.50;99.90
43183;DHT22;28802;38.578;-0.066;2023-08-30T03:52:46;24.40;99.90
43183;DHT22;28802;38.578;-0.066;2023-08-30T03:55:12;24.40;99.90
43183;DHT22;28802;38.578;-0.066;2023-08-30T03:57:38;24.40;99.90
43183;DHT22;28802;38.578;-0.066;2023-08-30T04:00:04;24.40;99.90
43183;DHT22;28802;38.578;-0.066;2023-08-30T04:02:39;24.50;99.90
43183;DHT22;28802;38.578;-0.066;2023-08-30T04:05:06;24.50;99.90
43183;DHT22;28802;38.578;-0.066;2023-08-30T04:07:36;24.50;99.90
43183;DHT22;28802;38.578;-0.066;2023-08-30T04:10:02;24.50;99.90
43183;DHT22;28802;38.578;-0.066;2023-08-30T04:12:31;24.50;99.90
43183;DHT22;28802;38.578;-0.066;2023-08-30T04:14:57;24.50;99.90
43183;DHT22;28802;38.578;-0.066;2023-08-30T04:17:23;24.30;99.90
43183;DHT22;28802;38.578;-0.066;2023-08-30T04:19:52;24.30;99.90
43183;DHT22;28802;38.578;-0.066;2023-08-30T04:22:19;24.30;99.90
43183;DHT22;28802;38.578;-0.066;2023-08-30T04:24:46;24.30;99.90
43183;DHT22;28802;38.578;-0.066;2023-08-30T04:27:12;24.30;99.90
43183;DHT22;28802;38.578;-0.066;2023-08-30T04:29:38;24.30;99.90
43183;DHT22;28802;38.578;-0.066;2023-08-30T04:32:04;24.30;99.90
43183;DHT22;28802;38.578;-0.066;2023-08-30T04:34:30;24.20;99.90
43183;DHT22;28802;38.578;-0.066;2023-08-30T04:36:57;24.10;99.90
43183;DHT22;28802;38.578;-0.066;2023-08-30T04:39:23;24.10;99.90
43183;DHT22;28802;38.578;-0.066;2023-08-30T04:41:50;24.10;99.90
43183;DHT22;28802;38.578;-0.066;2023-08-30T04:44:17;24.00;99.90
43183;DHT22;28802;38.578;-0.066;2023-08-30T04:46:45;24.00;99.90
43183;DHT22;28802;38.578;-0.066;2023-08-30T04:49:11;24.00;99.90
43183;DHT22;28802;38.578;-0.066;2023-08-30T04:51:37;24.00;99.90
43183;DHT22;28802;38.578;-0.066;2023-08-30T04:54:03;23.90;99.90
43183;DHT22;28802;38.578;-0.066;2023-08-30T04:56:29;23.70;99.90
43183;DHT22;28802;38.578;-0.066;2023-08-30T04:58:55;23.60;99.90
43183;DHT22;28802;38.578;-0.066;2023-08-30T05:01:23;23.60;99.90
43183;DHT22;28802;38.578;-0.066;2023-08-30T05:03:52;23.70;99.90
43183;DHT22;28802;38.578;-0.066;2023-08-30T05:06:18;23.80;99.90
43183;DHT22;28802;38.578;-0.066;2023-08-30T05:08:44;23.80;99.90
43183;DHT22;28802;38.578;-0.066;2023-08-30T05:11:10;23.80;99.90
43183;DHT22;28802;38.578;-0.066;2023-08-30T05:13:37;23.80;99.90
43183;DHT22;28802;38.578;-0.066;2023-08-30T05:16:03;23.90;99.90
43183;DHT22;28802;38.578;-0.066;2023-08-30T05:18:29;23.90;99.90
43183;DHT22;28802;38.578;-0.066;2023-08-30T05:20:55;24.00;99.90
43183;DHT22;28802;38.578;-0.066;2023-08-30T05:23:21;24.10;99.90
43183;DHT22;28802;38.578;-0.066;2023-08-30T05:25:47;24.20;99.90
43183;DHT22;28802;38.578;-0.066;2023-08-30T05:28:14;24.10;99.90
43183;DHT22;28802;38.578;-0.066;2023-08-30T05:30:42;24.10;99.90
43183;DHT22;28802;38.578;-0.066;2023-08-30T05:33:27;24.20;99.90
43183;DHT22;28802;38.578;-0.066;2023-08-30T05:36:19;24.20;99.90
43183;DHT22;28802;38.578;-0.066;2023-08-30T05:38:56;24.20;99.90
43183;DHT22;28802;38.578;-0.066;2023-08-30T05:41:48;24.10;99.90
43183;DHT22;28802;38.578;-0.066;2023-08-30T05:44:13;24.10;99.90
43183;DHT22;28802;38.578;-0.066;2023-08-30T05:46:39;24.00;99.90
43183;DHT22;28802;38.578;-0.066;2023-08-30T05:49:05;24.00;99.90
43183;DHT22;28802;38.578;-0.066;2023-08-30T05:51:31;24.00;99.90
43183;DHT22;28802;38.578;-0.066;2023-08-30T05:53:57;24.00;99.90
43183;DHT22;28802;38.578;-0.066;2023-08-30T05:56:23;24.00;99.90
43183;DHT22;28802;38.578;-0.066;2023-08-30T05:58:50;24.00;99.90
43183;DHT22;28802;38.578;-0.066;2023-08-30T06:01:18;24.10;99.90
43183;DHT22;28802;38.578;-0.066;2023-08-30T06:03:45;24.30;99.90
43183;DHT22;28802;38.578;-0.066;2023-08-30T06:06:12;24.60;99.90
43183;DHT22;28802;38.578;-0.066;2023-08-30T06:08:38;24.80;99.90
43183;DHT22;28802;38.578;-0.066;2023-08-30T06:11:04;24.90;99.90
43183;DHT22;28802;38.578;-0.066;2023-08-30T06:13:30;24.80;99.90
43183;DHT22;28802;38.578;-0.066;2023-08-30T06:15:56;24.80;99.90
43183;DHT22;28802;38.578;-0.066;2023-08-30T06:18:22;24.80;99.90
43183;DHT22;28802;38.578;-0.066;2023-08-30T06:20:48;24.90;99.90
43183;DHT22;28802;38.578;-0.066;2023-08-30T06:23:18;24.90;99.90
43183;DHT22;28802;38.578;-0.066;2023-08-30T06:25:44;24.90;99.90
43183;DHT22;28802;38.578;-0.066;2023-08-30T06:28:10;24.90;99.90
43183;DHT22;28802;38.578;-0.066;2023-08-30T06:30:36;25.00;99.90
43183;DHT22;28802;38.578;-0.066;2023-08-30T06:33:03;25.00;99.90
43183;DHT22;28802;38.578;-0.066;2023-08-30T06:35:29;25.00;99.90
43183;DHT22;28802;38.578;-0.066;2023-08-30T06:37:55;25.10;99.90
43183;DHT22;28802;38.578;-0.066;2023-08-30T06:40:21;25.20;99.90
43183;DHT22;28802;38.578;-0.066;2023-08-30T06:42:47;25.40;99.90
43183;DHT22;28802;38.578;-0.066;2023-08-30T06:45:13;25.40;99.90
43183;DHT22;28802;38.578;-0.066;2023-08-30T06:47:38;25.40;99.90
43183;DHT22;28802;38.578;-0.066;2023-08-30T06:50:05;25.40;99.90
43183;DHT22;28802;38.578;-0.066;2023-08-30T06:52:31;25.40;99.90
43183;DHT22;28802;38.578;-0.066;2023-08-30T06:54:57;25.50;99.90
43183;DHT22;28802;38.578;-0.066;2023-08-30T06:57:22;25.50;99.90
43183;DHT22;28802;38.578;-0.066;2023-08-30T06:59:48;25.50;99.90
43183;DHT22;28802;38.578;-0.066;2023-08-30T07:02:14;25.50;99.90
43183;DHT22;28802;38.578;-0.066;2023-08-30T07:04:40;25.70;99.90
43183;DHT22;28802;38.578;-0.066;2023-08-30T07:07:06;25.80;99.90
43183;DHT22;28802;38.578;-0.066;2023-08-30T07:09:31;25.90;99.90
43183;DHT22;28802;38.578;-0.066;2023-08-30T07:11:59;26.00;99.90
43183;DHT22;28802;38.578;-0.066;2023-08-30T07:14:25;26.00;99.90
43183;DHT22;28802;38.578;-0.066;2023-08-30T07:16:51;26.00;99.90
43183;DHT22;28802;38.578;-0.066;2023-08-30T07:19:17;26.00;99.90
43183;DHT22;28802;38.578;-0.066;2023-08-30T07:21:43;26.20;99.90
43183;DHT22;28802;38.578;-0.066;2023-08-30T07:24:09;26.20;99.90
43183;DHT22;28802;38.578;-0.066;2023-08-30T07:26:35;26.20;99.90
43183;DHT22;28802;38.578;-0.066;2023-08-30T07:29:02;26.20;99.90
43183;DHT22;28802;38.578;-0.066;2023-08-30T07:31:31;26.20;99.90
43183;DHT22;28802;38.578;-0.066;2023-08-30T07:33:57;26.40;99.90
43183;DHT22;28802;38.578;-0.066;2023-08-30T07:36:29;27.40;99.90
43183;DHT22;28802;38.578;-0.066;2023-08-30T07:38:55;28.10;99.90
43183;DHT22;28802;38.578;-0.066;2023-08-30T07:41:21;28.10;99.90
43183;DHT22;28802;38.578;-0.066;2023-08-30T07:43:47;28.20;99.90
43183;DHT22;28802;38.578;-0.066;2023-08-30T07:46:13;28.20;99.90
43183;DHT22;28802;38.578;-0.066;2023-08-30T07:48:38;28.70;99.90
43183;DHT22;28802;38.578;-0.066;2023-08-30T07:51:04;29.20;99.90
43183;DHT22;28802;38.578;-0.066;2023-08-30T07:53:30;28.80;99.90
43183;DHT22;28802;38.578;-0.066;2023-08-30T07:55:56;28.90;99.90
43183;DHT22;28802;38.578;-0.066;2023-08-30T07:58:23;28.70;99.90
43183;DHT22;28802;38.578;-0.066;2023-08-30T08:00:54;28.30;99.90
43183;DHT22;28802;38.578;-0.066;2023-08-30T08:03:21;28.20;99.90
43183;DHT22;28802;38.578;-0.066;2023-08-30T08:05:47;27.90;99.90
43183;DHT22;28802;38.578;-0.066;2023-08-30T08:08:13;27.80;99.90
43183;DHT22;28802;38.578;-0.066;2023-08-30T08:10:41;27.60;99.90
43183;DHT22;28802;38.578;-0.066;2023-08-30T08:13:08;27.50;99.90
43183;DHT22;28802;38.578;-0.066;2023-08-30T08:15:33;27.40;99.90
43183;DHT22;28802;38.578;-0.066;2023-08-30T08:18:02;27.50;99.90
43183;DHT22;28802;38.578;-0.066;2023-08-30T08:20:29;27.40;99.90
43183;DHT22;28802;38.578;-0.066;2023-08-30T08:22:55;27.30;99.90
43183;DHT22;28802;38.578;-0.066;2023-08-30T08:25:21;27.30;99.90
43183;DHT22;28802;38.578;-0.066;2023-08-30T08:27:49;27.30;99.90
43183;DHT22;28802;38.578;-0.066;2023-08-30T08:30:16;27.20;99.90
43183;DHT22;28802;38.578;-0.066;2023-08-30T08:32:42;27.30;99.90
43183;DHT22;28802;38.578;-0.066;2023-08-30T08:35:08;27.00;99.90
43183;DHT22;28802;38.578;-0.066;2023-08-30T08:37:34;27.10;99.90
43183;DHT22;28802;38.578;-0.066;2023-08-30T08:40:00;27.10;99.90
43183;DHT22;28802;38.578;-0.066;2023-08-30T08:42:34;27.10;99.90
43183;DHT22;28802;38.578;-0.066;2023-08-30T08:45:03;27.00;99.90
43183;DHT22;28802;38.578;-0.066;2023-08-30T08:47:32;27.40;99.90
43183;DHT22;28802;38.578;-0.066;2023-08-30T08:49:59;27.60;99.90
43183;DHT22;28802;38.578;-0.066;2023-08-30T08:52:34;28.30;99.90
43183;DHT22;28802;38.578;-0.066;2023-08-30T08:55:01;28.00;99.90
43183;DHT22;28802;38.578;-0.066;2023-08-30T08:57:28;27.60;99.90
43183;DHT22;28802;38.578;-0.066;2023-08-30T08:59:57;27.70;99.90
43183;DHT22;28802;38.578;-0.066;2023-08-30T09:02:23;28.10;99.90
43183;DHT22;28802;38.578;-0.066;2023-08-30T09:04:49;30.10;99.90
43183;DHT22;28802;38.578;-0.066;2023-08-30T09:07:16;31.60;99.90
43183;DHT22;28802;38.578;-0.066;2023-08-30T09:09:42;31.00;99.90
43183;DHT22;28802;38.578;-0.066;2023-08-30T09:12:08;30.60;99.90
43183;DHT22;28802;38.578;-0.066;2023-08-30T09:14:34;30.30;99.90
43183;DHT22;28802;38.578;-0.066;2023-08-30T09:17:01;30.60;99.90
43183;DHT22;28802;38.578;-0.066;2023-08-30T09:19:28;32.30;99.90
43183;DHT22;28802;38.578;-0.066;2023-08-30T09:21:56;34.10;99.90
43183;DHT22;28802;38.578;-0.066;2023-08-30T09:24:23;34.60;99.90
43183;DHT22;28802;38.578;-0.066;2023-08-30T09:26:50;33.40;99.90
43183;DHT22;28802;38.578;-0.066;2023-08-30T09:29:17;32.80;99.90
43183;DHT22;28802;38.578;-0.066;2023-08-30T09:31:43;32.20;99.90
43183;DHT22;28802;38.578;-0.066;2023-08-30T09:34:10;31.00;99.90
43183;DHT22;28802;38.578;-0.066;2023-08-30T09:36:37;29.80;99.90
43183;DHT22;28802;38.578;-0.066;2023-08-30T09:39:05;29.20;99.90
43183;DHT22;28802;38.578;-0.066;2023-08-30T09:41:31;29.10;99.90
43183;DHT22;28802;38.578;-0.066;2023-08-30T09:44:06;29.00;99.90
43183;DHT22;28802;38.578;-0.066;2023-08-30T09:46:43;28.70;99.90
43183;DHT22;28802;38.578;-0.066;2023-08-30T09:49:11;28.40;99.90
43183;DHT22;28802;38.578;-0.066;2023-08-30T09:51:41;27.90;99.90
43183;DHT22;28802;38.578;-0.066;2023-08-30T09:54:14;27.70;99.90
43183;DHT22;28802;38.578;-0.066;2023-08-30T09:56:44;27.70;99.90
43183;DHT22;28802;38.578;-0.066;2023-08-30T09:59:14;28.00;99.90
43183;DHT22;28802;38.578;-0.066;2023-08-30T10:01:42;27.90;99.90
43183;DHT22;28802;38.578;-0.066;2023-08-30T10:04:09;27.70;99.90
43183;DHT22;28802;38.578;-0.066;2023-08-30T10:06:37;27.80;99.90
43183;DHT22;28802;38.578;-0.066;2023-08-30T10:09:04;28.00;99.90
43183;DHT22;28802;38.578;-0.066;2023-08-30T10:11:34;28.10;99.90
43183;DHT22;28802;38.578;-0.066;2023-08-30T10:14:00;28.30;99.90
43183;DHT22;28802;38.578;-0.066;2023-08-30T10:16:43;28.20;99.90
43183;DHT22;28802;38.578;-0.066;2023-08-30T10:19:23;27.80;99.90
43183;DHT22;28802;38.578;-0.066;2023-08-30T10:22:00;27.70;99.90
43183;DHT22;28802;38.578;-0.066;2023-08-30T10:24:29;27.80;99.90
43183;DHT22;28802;38.578;-0.066;2023-08-30T10:26:57;27.50;99.90
43183;DHT22;28802;38.578;-0.066;2023-08-30T10:29:24;27.60;99.90
43183;DHT22;28802;38.578;-0.066;2023-08-30T10:31:51;27.60;99.90
43183;DHT22;28802;38.578;-0.066;2023-08-30T10:34:17;27.80;99.90
43183;DHT22;28802;38.578;-0.066;2023-08-30T10:36:45;28.00;99.90
43183;DHT22;28802;38.578;-0.066;2023-08-30T10:39:34;28.70;99.90
43183;DHT22;28802;38.578;-0.066;2023-08-30T10:42:06;29.20;99.90
43183;DHT22;28802;38.578;-0.066;2023-08-30T10:44:32;28.60;99.90
43183;DHT22;28802;38.578;-0.066;2023-08-30T10:47:01;29.30;99.90
43183;DHT22;28802;38.578;-0.066;2023-08-30T10:49:27;30.10;99.90
43183;DHT22;28802;38.578;-0.066;2023-08-30T10:51:57;29.70;99.90
43183;DHT22;28802;38.578;-0.066;2023-08-30T10:54:24;29.20;99.90
43183;DHT22;28802;38.578;-0.066;2023-08-30T10:56:57;29.30;99.90
43183;DHT22;28802;38.578;-0.066;2023-08-30T10:59:27;29.40;99.90
43183;DHT22;28802;38.578;-0.066;2023-08-30T11:01:53;29.00;99.90
43183;DHT22;28802;38.578;-0.066;2023-08-30T11:04:19;28.70;99.90
43183;DHT22;28802;38.578;-0.066;2023-08-30T11:06:48;28.90;99.90
43183;DHT22;28802;38.578;-0.066;2023-08-30T11:09:16;29.20;99.90
43183;DHT22;28802;38.578;-0.066;2023-08-30T11:11:46;29.30;99.90
43183;DHT22;28802;38.578;-0.066;2023-08-30T11:14:13;29.20;99.90
43183;DHT22;28802;38.578;-0.066;2023-08-30T11:16:39;29.10;99.90
43183;DHT22;28802;38.578;-0.066;2023-08-30T11:19:06;29.20;99.90
43183;DHT22;28802;38.578;-0.066;2023-08-30T11:21:35;29.00;99.90
43183;DHT22;28802;38.578;-0.066;2023-08-30T11:24:03;29.10;99.90
43183;DHT22;28802;38.578;-0.066;2023-08-30T11:26:29;29.40;99.90
43183;DHT22;28802;38.578;-0.066;2023-08-30T11:28:55;29.30;99.90
43183;DHT22;28802;38.578;-0.066;2023-08-30T11:31:22;29.20;99.90
43183;DHT22;28802;38.578;-0.066;2023-08-30T11:33:52;28.70;99.90
43183;DHT22;28802;38.578;-0.066;2023-08-30T11:36:21;28.90;99.90
43183;DHT22;28802;38.578;-0.066;2023-08-30T11:38:49;28.50;99.90
43183;DHT22;28802;38.578;-0.066;2023-08-30T11:41:15;27.90;99.90
43183;DHT22;28802;38.578;-0.066;2023-08-30T11:43:41;28.20;99.90
43183;DHT22;28802;38.578;-0.066;2023-08-30T11:46:08;28.50;99.90
43183;DHT22;28802;38.578;-0.066;2023-08-30T11:48:35;28.30;99.90
43183;DHT22;28802;38.578;-0.066;2023-08-30T11:51:01;27.90;99.90
43183;DHT22;28802;38.578;-0.066;2023-08-30T11:53:27;27.70;99.90
43183;DHT22;28802;38.578;-0.066;2023-08-30T11:55:53;28.00;99.90
43183;DHT22;28802;38.578;-0.066;2023-08-30T11:58:19;28.10;99.90
43183;DHT22;28802;38.578;-0.066;2023-08-30T12:00:48;27.50;99.90
43183;DHT22;28802;38.578;-0.066;2023-08-30T12:03:15;27.00;99.90
43183;DHT22;28802;38.578;-0.066;2023-08-30T12:05:48;26.70;99.90
43183;DHT22;28802;38.578;-0.066;2023-08-30T12:08:41;26.50;99.90
43183;DHT22;28802;38.578;-0.066;2023-08-30T12:11:17;26.40;99.90
43183;DHT22;28802;38.578;-0.066;2023-08-30T12:13:44;26.30;99.90
43183;DHT22;28802;38.578;-0.066;2023-08-30T12:16:15;26.40;99.90
43183;DHT22;28802;38.578;-0.066;2023-08-30T12:18:42;26.50;99.90
43183;DHT22;28802;38.578;-0.066;2023-08-30T12:21:08;27.20;99.90
43183;DHT22;28802;38.578;-0.066;2023-08-30T12:23:34;27.50;99.90
43183;DHT22;28802;38.578;-0.066;2023-08-30T12:26:00;27.00;99.90
43183;DHT22;28802;38.578;-0.066;2023-08-30T12:28:27;26.80;99.90
43183;DHT22;28802;38.578;-0.066;2023-08-30T12:30:54;26.90;99.90
43183;DHT22;28802;38.578;-0.066;2023-08-30T12:33:20;27.20;99.90
43183;DHT22;28802;38.578;-0.066;2023-08-30T12:35:47;27.00;99.90
43183;DHT22;28802;38.578;-0.066;2023-08-30T12:38:13;26.90;99.90
43183;DHT22;28802;38.578;-0.066;2023-08-30T12:40:47;26.80;99.90
43183;DHT22;28802;38.578;-0.066;2023-08-30T12:43:14;26.60;99.90
43183;DHT22;28802;38.578;-0.066;2023-08-30T12:45:40;26.40;99.90
43183;DHT22;28802;38.578;-0.066;2023-08-30T12:48:07;26.50;99.90
43183;DHT22;28802;38.578;-0.066;2023-08-30T12:50:37;26.60;99.90
43183;DHT22;28802;38.578;-0.066;2023-08-30T12:53:06;26.60;99.90
43183;DHT22;28802;38.578;-0.066;2023-08-30T12:55:33;26.90;99.90
43183;DHT22;28802;38.578;-0.066;2023-08-30T12:58:06;26.50;99.90
43183;DHT22;28802;38.578;-0.066;2023-08-30T13:00:33;26.40;99.90
43183;DHT22;28802;38.578;-0.066;2023-08-30T13:02:59;26.30;99.90
43183;DHT22;28802;38.578;-0.066;2023-08-30T13:05:26;26.40;99.90
43183;DHT22;28802;38.578;-0.066;2023-08-30T13:07:52;26.50;99.90
43183;DHT22;28802;38.578;-0.066;2023-08-30T13:10:18;26.50;99.90
43183;DHT22;28802;38.578;-0.066;2023-08-30T13:12:44;26.50;99.90
43183;DHT22;28802;38.578;-0.066;2023-08-30T13:15:10;26.50;99.90
43183;DHT22;28802;38.578;-0.066;2023-08-30T13:17:37;26.50;99.90
43183;DHT22;28802;38.578;-0.066;2023-08-30T13:20:03;26.40;99.90
43183;DHT22;28802;38.578;-0.066;2023-08-30T13:22:29;26.40;99.90
43183;DHT22;28802;38.578;-0.066;2023-08-30T13:24:55;26.20;99.90
43183;DHT22;28802;38.578;-0.066;2023-08-30T13:27:21;26.20;99.90
43183;DHT22;28802;38.578;-0.066;2023-08-30T13:29:47;26.30;99.90
43183;DHT22;28802;38.578;-0.066;2023-08-30T13:32:13;26.30;99.90
43183;DHT22;28802;38.578;-0.066;2023-08-30T13:34:39;26.20;99.90
43183;DHT22;28802;38.578;-0.066;2023-08-30T13:37:05;26.10;99.90
43183;DHT22;28802;38.578;-0.066;2023-08-30T13:39:31;26.10;99.90
43183;DHT22;28802;38.578;-0.066;2023-08-30T13:41:57;26.10;99.90
43183;DHT22;28802;38.578;-0.066;2023-08-30T13:44:23;26.20;99.90
43183;DHT22;28802;38.578;-0.066;2023-08-30T13:46:50;26.20;99.90
43183;DHT22;28802;38.578;-0.066;2023-08-30T13:49:16;26.30;99.90
43183;DHT22;28802;38.578;-0.066;2023-08-30T13:51:44;26.30;99.90
43183;DHT22;28802;38.578;-0.066;2023-08-30T13:54:10;26.30;99.90
43183;DHT22;28802;38.578;-0.066;2023-08-30T13:56:36;26.30;99.90
43183;DHT22;28802;38.578;-0.066;2023-08-30T13:59:05;26.30;99.90
43183;DHT22;28802;38.578;-0.066;2023-08-30T14:01:34;26.50;99.90
43183;DHT22;28802;38.578;-0.066;2023-08-30T14:04:00;26.40;99.90
43183;DHT22;28802;38.578;-0.066;2023-08-30T14:06:26;26.40;99.90
43183;DHT22;28802;38.578;-0.066;2023-08-30T14:08:52;26.50;99.90
43183;DHT22;28802;38.578;-0.066;2023-08-30T14:11:18;26.50;99.90
43183;DHT22;28802;38.578;-0.066;2023-08-30T14:13:44;26.30;99.90
43183;DHT22;28802;38.578;-0.066;2023-08-30T14:16:10;26.30;99.90
43183;DHT22;28802;38.578;-0.066;2023-08-30T14:18:36;26.30;99.90
43183;DHT22;28802;38.578;-0.066;2023-08-30T14:21:02;26.40;99.90
43183;DHT22;28802;38.578;-0.066;2023-08-30T14:23:29;26.30;99.90
43183;DHT22;28802;38.578;-0.066;2023-08-30T14:26:13;26.30;99.90
43183;DHT22;28802;38.578;-0.066;2023-08-30T14:28:40;26.50;99.90
43183;DHT22;28802;38.578;-0.066;2023-08-30T14:31:10;26.50;99.90
43183;DHT22;28802;38.578;-0.066;2023-08-30T14:33:42;26.40;99.90
43183;DHT22;28802;38.578;-0.066;2023-08-30T14:36:10;26.20;99.90
43183;DHT22;28802;38.578;-0.066;2023-08-30T14:38:36;26.20;99.90
43183;DHT22;28802;38.578;-0.066;2023-08-30T14:41:06;26.30;99.90
43183;DHT22;28802;38.578;-0.066;2023-08-30T14:43:32;26.40;99.90
43183;DHT22;28802;38.578;-0.066;2023-08-30T14:46:03;26.50;99.90
43183;DHT22;28802;38.578;-0.066;2023-08-30T14:48:29;26.30;99.90
43183;DHT22;28802;38.578;-0.066;2023-08-30T14:51:01;26.30;99.90
43183;DHT22;28802;38.578;-0.066;2023-08-30T14:53:27;26.20;99.90
43183;DHT22;28802;38.578;-0.066;2023-08-30T14:55:53;26.10;99.90
43183;DHT22;28802;38.578;-0.066;2023-08-30T14:58:20;26.10;99.90
43183;DHT22;28802;38.578;-0.066;2023-08-30T15:00:49;26.00;99.90
43183;DHT22;28802;38.578;-0.066;2023-08-30T15:03:15;26.00;99.90
43183;DHT22;28802;38.578;-0.066;2023-08-30T15:05:41;26.00;99.90
43183;DHT22;28802;38.578;-0.066;2023-08-30T15:08:07;26.00;99.90
43183;DHT22;28802;38.578;-0.066;2023-08-30T15:10:33;26.10;99.90
43183;DHT22;28802;38.578;-0.066;2023-08-30T15:12:59;26.20;99.90
43183;DHT22;28802;38.578;-0.066;2023-08-30T15:15:25;26.10;99.90
43183;DHT22;28802;38.578;-0.066;2023-08-30T15:17:51;26.10;99.90
43183;DHT22;28802;38.578;-0.066;2023-08-30T15:20:17;26.20;99.90
43183;DHT22;28802;38.578;-0.066;2023-08-30T15:22:43;26.20;99.90
43183;DHT22;28802;38.578;-0.066;2023-08-30T15:25:08;26.10;99.90